createdAt,value
2019-04-27T00:02:05.723Z,98691.61
2019-04-27T00:04:58.500Z,98692.64
2019-04-27T00:07:59.462Z,98692.64
2019-04-27T00:10:39.827Z,98700.23
2019-04-27T00:13:12.949Z,98691.02
2019-04-27T00:16:05.601Z,98691.02
2019-04-27T00:18:57.837Z,98698.44
2019-04-27T00:21:48.297Z,98699.60
2019-04-27T00:24:20.432Z,98707.17
2019-04-27T00:26:54.075Z,98703.97
2019-04-27T00:29:26.079Z,98707.10
2019-04-27T00:31:57.846Z,98708.64
2019-04-27T00:34:30.043Z,98709.56
2019-04-27T00:37:19.906Z,98709.56
2019-04-27T00:40:23.554Z,98724.45
2019-04-27T00:42:55.424Z,98724.45
2019-04-27T00:45:27.431Z,98727.26
2019-04-27T00:47:59.917Z,98721.89
2019-04-27T00:50:33.793Z,98721.89
2019-04-27T00:53:05.634Z,98725.92
2019-04-27T00:55:40.337Z,98728.22
2019-04-27T00:58:36.994Z,98729.02
2019-04-27T01:01:27.598Z,98729.02
2019-04-27T01:04:10.714Z,98737.55
2019-04-27T01:06:43.746Z,98743.92
2019-04-27T01:09:17.042Z,98740.67
2019-04-27T01:11:48.799Z,98740.67
2019-04-27T01:14:23.126Z,98753.34
2019-04-27T01:16:59.819Z,98753.34
2019-04-27T01:19:31.612Z,98755.28
2019-04-27T01:22:03.635Z,98755.28
2019-04-27T01:24:36.483Z,98754.95
2019-04-27T01:27:18.946Z,98763.00
2019-04-27T01:29:51.321Z,98756.55
2019-04-27T01:32:23.118Z,98771.45
2019-04-27T01:34:55.638Z,98768.20
2019-04-27T01:37:28.523Z,98776.45
2019-04-27T01:40:00.376Z,98774.44
2019-04-27T01:42:32.226Z,98779.38
2019-04-27T01:45:04.570Z,98781.48
2019-04-27T01:47:36.578Z,98783.15
2019-04-27T01:50:08.836Z,98788.27
2019-04-27T01:52:41.108Z,98787.20
2019-04-27T01:55:13.838Z,98797.69
2019-04-27T01:57:46.219Z,98797.69
2019-04-27T02:00:59.466Z,98795.63
2019-04-27T02:03:45.002Z,98793.92
2019-04-27T02:06:19.067Z,98797.20
2019-04-27T02:08:51.790Z,98815.37
2019-04-27T02:11:24.314Z,98815.37
2019-04-27T02:13:56.259Z,98819.84
2019-04-27T02:16:30.450Z,98819.84
2019-04-27T02:19:03.282Z,98823.58
2019-04-27T02:21:36.955Z,98823.58
2019-04-27T02:24:10.997Z,98822.41
2019-04-27T02:26:44.190Z,98821.34
2019-04-27T02:29:50.472Z,98821.34
2019-04-27T02:32:39.661Z,98821.64
2019-04-27T02:35:14.942Z,98826.36
2019-04-27T02:37:50.217Z,98833.05
2019-04-27T02:40:55.667Z,98833.05
2019-04-27T02:43:34.495Z,98832.33
2019-04-27T02:46:06.641Z,98837.84
2019-04-27T02:48:52.805Z,98845.92
2019-04-27T02:51:13.889Z,98845.92
2019-04-27T02:54:00.220Z,98847.63
2019-04-27T02:56:31.853Z,98850.83
2019-04-27T02:59:03.853Z,98850.83
2019-04-27T03:01:46.302Z,98853.41
2019-04-27T03:04:14.231Z,98853.41
2019-04-27T03:06:46.331Z,98857.91
2019-04-27T03:09:20.524Z,98858.93
2019-04-27T03:11:52.198Z,98861.75
2019-04-27T03:14:56.127Z,98861.75
2019-04-27T03:17:39.322Z,98868.84
2019-04-27T03:20:33.289Z,98868.84
2019-04-27T03:23:09.497Z,98872.17
2019-04-27T03:26:10.358Z,98869.99
2019-04-27T03:28:41.058Z,98869.99
2019-04-27T03:31:14.095Z,98873.76
2019-04-27T03:33:46.515Z,98873.76
2019-04-27T03:36:21.573Z,98879.34
2019-04-27T03:38:51.983Z,98873.95
2019-04-27T03:41:23.605Z,98878.20
2019-04-27T03:43:55.845Z,98881.19
2019-04-27T03:46:30.131Z,98881.19
2019-04-27T03:49:03.725Z,98880.31
2019-04-27T03:51:46.049Z,98881.72
2019-04-27T03:54:29.682Z,98875.61
2019-04-27T03:57:09.909Z,98875.61
2019-04-27T04:00:01.737Z,98878.69
2019-04-27T04:02:35.129Z,98879.73
2019-04-27T04:05:09.659Z,98879.73
2019-04-27T04:07:41.079Z,98877.94
2019-04-27T04:10:13.213Z,98877.94
2019-04-27T04:13:04.000Z,98880.84
2019-04-27T04:16:00.520Z,98880.71
2019-04-27T04:18:51.323Z,98880.71
2019-04-27T04:21:23.456Z,98881.37
2019-04-27T04:23:55.086Z,98879.30
2019-04-27T04:26:32.158Z,98873.43
2019-04-27T04:29:02.380Z,98875.55
2019-04-27T04:31:34.167Z,98875.39
2019-04-27T04:34:05.947Z,98875.39
2019-04-27T04:36:39.427Z,98878.39
2019-04-27T04:39:12.427Z,98873.00
2019-04-27T04:42:03.474Z,98876.41
2019-04-27T04:45:03.025Z,98874.01
2019-04-27T04:47:42.610Z,98874.01
2019-04-27T04:50:15.374Z,98871.11
2019-04-27T04:52:49.967Z,98873.67
2019-04-27T04:55:22.174Z,98870.66
2019-04-27T04:57:56.699Z,98870.87
2019-04-27T05:00:29.970Z,98873.56
2019-04-27T05:03:01.875Z,98875.16
2019-04-27T05:05:33.685Z,98867.41
2019-04-27T05:08:05.858Z,98861.99
2019-04-27T05:10:39.522Z,98862.89
2019-04-27T05:13:11.567Z,98856.95
2019-04-27T05:15:43.891Z,98857.30
2019-04-27T05:18:15.908Z,98857.30
2019-04-27T05:20:54.271Z,98851.91
2019-04-27T05:23:28.702Z,98851.91
2019-04-27T05:26:00.356Z,98846.52
2019-04-27T05:28:33.614Z,98843.03
2019-04-27T05:31:05.825Z,98836.67
2019-04-27T05:33:38.885Z,98842.84
2019-04-27T05:36:11.158Z,98837.34
2019-04-27T05:38:45.869Z,98832.26
2019-04-27T05:41:18.708Z,98828.95
2019-04-27T05:44:11.154Z,98827.49
2019-04-27T05:47:09.990Z,98831.53
2019-04-27T05:49:49.166Z,98832.82
2019-04-27T05:52:30.673Z,98827.20
2019-04-27T05:55:03.001Z,98820.70
2019-04-27T05:57:34.905Z,98817.88
2019-04-27T06:00:09.188Z,98817.88
2019-04-27T06:02:41.719Z,98809.02
2019-04-27T06:05:14.223Z,98809.02
2019-04-27T06:07:45.869Z,98808.28
2019-04-27T06:10:19.684Z,98799.28
2019-04-27T06:12:52.151Z,98800.35
2019-04-27T06:15:24.459Z,98795.66
2019-04-27T06:17:56.053Z,98787.77
2019-04-27T06:20:28.611Z,98778.56
2019-04-27T06:23:00.707Z,98779.83
2019-04-27T06:25:32.344Z,98779.83
2019-04-27T06:28:04.314Z,98770.84
2019-04-27T06:30:36.743Z,98769.09
2019-04-27T06:33:09.386Z,98769.09
2019-04-27T06:35:41.718Z,98764.77
2019-04-27T06:38:13.728Z,98764.77
2019-04-27T06:40:45.493Z,98762.60
2019-04-27T06:43:19.154Z,98754.52
2019-04-27T06:45:51.302Z,98754.52
2019-04-27T06:48:26.746Z,98747.34
2019-04-27T06:51:03.647Z,98736.55
2019-04-27T06:53:33.103Z,98740.59
2019-04-27T06:56:05.071Z,98733.67
2019-04-27T06:58:40.464Z,98723.46
2019-04-27T07:01:11.218Z,98725.23
2019-04-27T07:03:43.117Z,98725.23
2019-04-27T07:06:15.013Z,98718.48
2019-04-27T07:08:46.975Z,98730.71
2019-04-27T07:11:19.761Z,98718.52
2019-04-27T07:13:51.954Z,98712.39
2019-04-27T07:16:23.640Z,98705.95
2019-04-27T07:18:55.995Z,98699.50
2019-04-27T07:21:28.699Z,98699.50
2019-04-27T07:24:01.227Z,98694.96
2019-04-27T07:26:33.935Z,98694.96
2019-04-27T07:29:06.356Z,98688.52
2019-04-27T07:31:40.291Z,98683.19
2019-04-27T07:34:20.613Z,98675.92
2019-04-27T07:36:54.440Z,98675.92
2019-04-27T07:39:31.260Z,98661.41
2019-04-27T07:42:06.336Z,98662.19
2019-04-27T07:45:00.258Z,98662.19
2019-04-27T07:47:32.169Z,98646.58
2019-04-27T07:50:11.286Z,98630.70
2019-04-27T07:52:48.682Z,98630.70
2019-04-27T07:55:21.176Z,98641.38
2019-04-27T07:57:55.546Z,98630.05
2019-04-27T08:00:28.959Z,98619.80
2019-04-27T08:03:01.463Z,98619.80
2019-04-27T08:05:34.437Z,98615.50
2019-04-27T08:08:09.469Z,98616.12
2019-04-27T08:10:41.733Z,98601.75
2019-04-27T08:13:14.100Z,98601.75
2019-04-27T08:15:46.719Z,98603.30
2019-04-27T08:18:19.054Z,98590.21
2019-04-27T08:20:51.634Z,98590.21
2019-04-27T08:23:23.902Z,98591.27
2019-04-27T08:25:56.236Z,98593.52
2019-04-27T08:28:38.715Z,98583.27
2019-04-27T08:31:38.655Z,98581.58
2019-04-27T08:34:32.455Z,98570.48
2019-04-27T08:37:09.143Z,98570.48
2019-04-27T08:39:45.034Z,98561.99
2019-04-27T08:42:19.483Z,98565.77
2019-04-27T08:44:53.131Z,98550.55
2019-04-27T08:47:29.183Z,98550.55
2019-04-27T08:50:03.573Z,98558.73
2019-04-27T08:52:41.480Z,98551.23
2019-04-27T08:55:15.502Z,98541.04
2019-04-27T08:57:49.599Z,98534.91
2019-04-27T09:00:24.268Z,98534.51
2019-04-27T09:02:59.507Z,98531.00
2019-04-27T09:05:34.494Z,98525.25
2019-04-27T09:08:29.015Z,98524.35
2019-04-27T09:11:20.420Z,98510.20
2019-04-27T09:14:09.058Z,98497.77
2019-04-27T09:17:04.285Z,98497.77
2019-04-27T09:19:57.042Z,98494.94
2019-04-27T09:22:38.980Z,98494.94
2019-04-27T09:25:15.651Z,98498.17
2019-04-27T09:27:52.755Z,98481.30
2019-04-27T09:30:29.762Z,98474.67
2019-04-27T09:33:05.431Z,98487.13
2019-04-27T09:35:43.925Z,98484.20
2019-04-27T09:38:37.061Z,98480.54
2019-04-27T09:41:09.041Z,98473.75
2019-04-27T09:44:02.522Z,98467.69
2019-04-27T09:46:36.475Z,98459.12
2019-04-27T09:49:11.914Z,98459.12
2019-04-27T09:51:46.071Z,98462.55
2019-04-27T09:54:23.680Z,98461.53
2019-04-27T09:57:19.159Z,98461.53
2019-04-27T09:59:51.250Z,98448.97
2019-04-27T10:02:22.914Z,98457.58
2019-04-27T10:04:56.402Z,98443.59
2019-04-27T10:07:28.073Z,98451.52
2019-04-27T10:09:59.933Z,98446.73
2019-04-27T10:12:34.340Z,98453.66
2019-04-27T10:15:07.519Z,98453.66
2019-04-27T10:17:47.456Z,98446.37
2019-04-27T10:20:20.036Z,98436.03
2019-04-27T10:22:52.648Z,98434.73
2019-04-27T10:25:26.824Z,98435.17
2019-04-27T10:28:01.515Z,98435.11
2019-04-27T10:30:33.610Z,98431.90
2019-04-27T10:33:07.906Z,98431.90
2019-04-27T10:35:39.624Z,98423.02
2019-04-27T10:38:17.211Z,98436.33
2019-04-27T10:40:49.579Z,98434.48
2019-04-27T10:43:21.866Z,98429.55
2019-04-27T10:45:53.783Z,98414.30
2019-04-27T10:48:26.513Z,98414.30
2019-04-27T10:50:58.126Z,98426.88
2019-04-27T10:53:29.964Z,98416.82
2019-04-27T10:56:01.870Z,98416.82
2019-04-27T10:58:35.266Z,98422.09
2019-04-27T11:01:09.126Z,98420.39
2019-04-27T11:04:05.990Z,98423.02
2019-04-27T11:06:41.344Z,98423.02
2019-04-27T11:09:13.601Z,98422.58
2019-04-27T11:11:46.402Z,98422.58
2019-04-27T11:14:18.787Z,98420.22
2019-04-27T11:16:50.679Z,98414.33
2019-04-27T11:19:22.667Z,98416.89
2019-04-27T11:21:54.390Z,98416.89
2019-04-27T11:24:26.421Z,98411.00
2019-04-27T11:26:58.087Z,98405.93
2019-04-27T11:29:29.925Z,98410.67
2019-04-27T11:32:01.790Z,98421.31
2019-04-27T11:34:51.251Z,98417.94
2019-04-27T11:37:30.028Z,98418.10
2019-04-27T11:40:01.928Z,98418.10
2019-04-27T11:42:34.965Z,98423.95
2019-04-27T11:45:08.385Z,98423.05
2019-04-27T11:47:40.191Z,98420.45
2019-04-27T11:50:12.459Z,98421.26
2019-04-27T11:53:06.028Z,98421.26
2019-04-27T11:55:38.231Z,98423.14
2019-04-27T11:58:10.197Z,98423.14
2019-04-27T12:00:42.504Z,98429.36
2019-04-27T12:03:16.528Z,98429.36
2019-04-27T12:05:48.394Z,98431.16
2019-04-27T12:08:20.386Z,98435.21
2019-04-27T12:10:52.626Z,98427.91
2019-04-27T12:13:25.913Z,98434.65
2019-04-27T12:15:59.012Z,98436.46
2019-04-27T12:18:30.597Z,98436.46
2019-04-27T12:21:02.387Z,98438.63
2019-04-27T12:23:37.108Z,98440.89
2019-04-27T12:26:09.276Z,98440.89
2019-04-27T12:28:50.016Z,98442.02
2019-04-27T12:31:35.780Z,98445.05
2019-04-27T12:34:07.317Z,98442.73
2019-04-27T12:36:39.245Z,98449.59
2019-04-27T12:39:15.646Z,98443.36
2019-04-27T12:41:47.521Z,98451.05
2019-04-27T12:44:19.639Z,98447.41
2019-04-27T12:46:52.172Z,98447.82
2019-04-27T12:49:23.841Z,98448.53
2019-04-27T12:51:55.930Z,98456.69
2019-04-27T12:54:39.843Z,98457.59
2019-04-27T12:57:39.459Z,98462.14
2019-04-27T13:00:20.270Z,98462.03
2019-04-27T13:02:52.039Z,98464.95
2019-04-27T13:05:25.720Z,98467.63
2019-04-27T13:07:57.686Z,98469.63
2019-04-27T13:10:30.784Z,98473.23
2019-04-27T13:13:02.880Z,98473.23
2019-04-27T13:15:35.683Z,98471.38
2019-04-27T13:18:07.516Z,98479.71
2019-04-27T13:20:39.420Z,98471.40
2019-04-27T13:23:11.609Z,98482.28
2019-04-27T13:25:43.595Z,98481.88
2019-04-27T13:28:15.289Z,98481.88
2019-04-27T13:30:47.600Z,98485.59
2019-04-27T13:33:19.111Z,98480.62
2019-04-27T13:35:51.064Z,98494.28
2019-04-27T13:38:23.123Z,98494.28
2019-04-27T13:41:08.734Z,98498.18
2019-04-27T13:43:40.825Z,98499.82
2019-04-27T13:46:38.213Z,98507.45
2019-04-27T13:49:40.963Z,98507.45
2019-04-27T13:52:16.814Z,98518.92
2019-04-27T13:54:48.837Z,98518.92
2019-04-27T13:57:20.900Z,98519.05
2019-04-27T13:59:52.855Z,98521.00
2019-04-27T14:02:31.864Z,98520.33
2019-04-27T14:04:59.902Z,98524.89
2019-04-27T14:07:31.998Z,98527.89
2019-04-27T14:10:04.163Z,98531.40
2019-04-27T14:12:36.253Z,98531.40
2019-04-27T14:15:08.745Z,98535.16
2019-04-27T14:17:40.988Z,98531.08
2019-04-27T14:20:12.797Z,98531.08
2019-04-27T14:22:44.719Z,98538.18
2019-04-27T14:25:18.060Z,98538.18
2019-04-27T14:27:50.423Z,98542.35
2019-04-27T14:30:22.462Z,98547.08
2019-04-27T14:32:54.310Z,98552.06
2019-04-27T14:35:28.298Z,98552.06
2019-04-27T14:38:00.287Z,98560.49
2019-04-27T14:40:32.336Z,98559.20
2019-04-27T14:43:04.483Z,98566.55
2019-04-27T14:45:39.538Z,98577.30
2019-04-27T14:48:12.838Z,98575.20
2019-04-27T14:50:44.308Z,98575.24
2019-04-27T14:53:16.257Z,98579.21
2019-04-27T14:55:49.035Z,98579.28
2019-04-27T14:58:21.984Z,98584.18
2019-04-27T15:00:54.040Z,98586.39
2019-04-27T15:03:28.968Z,98589.32
2019-04-27T15:06:00.550Z,98589.32
2019-04-27T15:08:34.031Z,98592.63
2019-04-27T15:11:10.454Z,98592.63
2019-04-27T15:13:43.079Z,98605.03
2019-04-27T15:16:14.798Z,98599.17
2019-04-27T15:18:51.767Z,98599.17
2019-04-27T15:21:25.454Z,98593.87
2019-04-27T15:24:04.265Z,98602.67
2019-04-27T15:26:33.248Z,98605.67
2019-04-27T15:29:06.674Z,98608.31
2019-04-27T15:31:45.845Z,98608.31
2019-04-27T15:34:35.475Z,98607.19
2019-04-27T15:37:35.371Z,98607.19
2019-04-27T15:40:36.590Z,98609.27
2019-04-27T15:43:38.528Z,98610.09
2019-04-27T15:46:10.162Z,98615.25
2019-04-27T15:48:42.639Z,98619.38
2019-04-27T15:51:17.395Z,98615.44
2019-04-27T15:53:50.711Z,98615.44
2019-04-27T15:56:22.487Z,98614.20
2019-04-27T15:58:55.817Z,98620.67
2019-04-27T16:01:31.238Z,98620.67
2019-04-27T16:04:02.619Z,98612.73
2019-04-27T16:06:35.517Z,98612.63
2019-04-27T16:09:16.010Z,98614.48
2019-04-27T16:11:50.108Z,98609.42
2019-04-27T16:14:20.881Z,98612.78
2019-04-27T16:16:52.776Z,98618.21
2019-04-27T16:19:24.379Z,98618.21
2019-04-27T16:21:59.106Z,98612.99
2019-04-27T16:24:31.488Z,98614.31
2019-04-27T16:27:03.205Z,98612.48
2019-04-27T16:29:35.331Z,98612.48
2019-04-27T16:32:11.250Z,98615.05
2019-04-27T16:34:41.415Z,98615.05
2019-04-27T16:37:18.974Z,98615.94
2019-04-27T16:39:49.550Z,98612.58
2019-04-27T16:42:21.793Z,98612.05
2019-04-27T16:44:53.855Z,98624.22
2019-04-27T16:47:25.719Z,98623.92
2019-04-27T16:50:00.792Z,98620.19
2019-04-27T16:52:32.692Z,98620.19
2019-04-27T16:55:04.766Z,98615.78
2019-04-27T16:57:39.640Z,98617.55
2019-04-27T17:00:14.941Z,98612.16
2019-04-27T17:02:49.501Z,98612.16
2019-04-27T17:05:24.396Z,98613.78
2019-04-27T17:07:55.082Z,98620.09
2019-04-27T17:10:28.655Z,98620.09
2019-04-27T17:13:00.406Z,98611.55
2019-04-27T17:15:58.956Z,98611.55
2019-04-27T17:18:38.565Z,98613.10
2019-04-27T17:21:18.803Z,98610.02
2019-04-27T17:23:44.227Z,98608.67
2019-04-27T17:26:21.731Z,98603.48
2019-04-27T17:28:59.209Z,98603.48
2019-04-27T17:31:32.779Z,98607.19
2019-04-27T17:34:08.019Z,98607.19
2019-04-27T17:36:40.276Z,98611.11
2019-04-27T17:39:12.489Z,98607.39
2019-04-27T17:41:49.273Z,98601.20
2019-04-27T17:44:22.631Z,98592.00
2019-04-27T17:47:35.895Z,98592.00
2019-04-27T17:50:05.042Z,98587.07
2019-04-27T17:52:55.456Z,98591.41
2019-04-27T17:55:25.434Z,98593.82
2019-04-27T17:58:05.316Z,98584.27
2019-04-27T18:00:41.665Z,98586.86
2019-04-27T18:03:17.492Z,98590.35
2019-04-27T18:05:54.027Z,98584.90
2019-04-27T18:08:31.851Z,98593.03
2019-04-27T18:11:03.777Z,98593.03
2019-04-27T18:13:42.127Z,98585.50
2019-04-27T18:16:13.790Z,98585.50
2019-04-27T18:19:11.591Z,98579.26
2019-04-27T18:22:00.513Z,98579.26
2019-04-27T18:24:39.694Z,98576.55
2019-04-27T18:27:49.594Z,98576.55
2019-04-27T18:30:33.800Z,98573.93
2019-04-27T18:33:09.637Z,98571.16
2019-04-27T18:35:42.385Z,98571.16
2019-04-27T18:38:13.944Z,98572.65
2019-04-27T18:40:45.497Z,98570.97
2019-04-27T18:43:18.729Z,98570.53
2019-04-27T18:45:50.607Z,98564.17
2019-04-27T18:48:32.326Z,98561.36
2019-04-27T18:51:31.943Z,98563.25
2019-04-27T18:54:04.006Z,98561.66
2019-04-27T18:56:38.614Z,98566.59
2019-04-27T18:59:09.704Z,98562.04
2019-04-27T19:01:42.071Z,98559.55
2019-04-27T19:04:13.874Z,98554.22
2019-04-27T19:06:45.824Z,98554.22
2019-04-27T19:09:18.829Z,98558.06
2019-04-27T19:11:56.041Z,98549.01
2019-04-27T19:14:28.222Z,98553.54
2019-04-27T19:17:00.344Z,98546.65
2019-04-27T19:19:32.278Z,98546.63
2019-04-27T19:22:03.834Z,98546.63
2019-04-27T19:24:35.647Z,98538.91
2019-04-27T19:27:30.262Z,98535.73
2019-04-27T19:30:11.860Z,98530.97
2019-04-27T19:32:44.204Z,98534.39
2019-04-27T19:35:19.778Z,98529.83
2019-04-27T19:37:50.702Z,98525.96
2019-04-27T19:40:22.513Z,98516.05
2019-04-27T19:42:54.549Z,98516.05
2019-04-27T19:45:26.344Z,98515.72
2019-04-27T19:47:57.876Z,98516.84
2019-04-27T19:50:29.621Z,98516.84
2019-04-27T19:53:01.428Z,98516.44
2019-04-27T19:55:33.286Z,98515.97
2019-04-27T19:58:05.631Z,98512.05
2019-04-27T20:00:48.452Z,98509.75
2019-04-27T20:03:28.870Z,98509.27
2019-04-27T20:06:00.797Z,98510.23
2019-04-27T20:08:34.795Z,98497.83
2019-04-27T20:11:06.708Z,98496.55
2019-04-27T20:13:38.325Z,98496.14
2019-04-27T20:16:10.851Z,98495.81
2019-04-27T20:18:43.326Z,98492.28
2019-04-27T20:21:15.485Z,98491.41
2019-04-27T20:23:47.158Z,98491.41
2019-04-27T20:26:19.217Z,98479.37
2019-04-27T20:28:51.385Z,98476.95
2019-04-27T20:31:23.561Z,98476.95
2019-04-27T20:33:58.297Z,98475.09
2019-04-27T20:36:31.350Z,98475.09
2019-04-27T20:39:05.834Z,98475.58
2019-04-27T20:41:38.810Z,98478.09
2019-04-27T20:44:12.342Z,98474.64
2019-04-27T20:46:43.748Z,98471.70
2019-04-27T20:49:19.921Z,98467.61
2019-04-27T20:52:10.969Z,98467.61
2019-04-27T20:54:43.128Z,98469.06
2019-04-27T20:57:14.998Z,98469.33
2019-04-27T20:59:46.967Z,98468.98
2019-04-27T21:02:51.953Z,98469.80
2019-04-27T21:05:51.032Z,98466.61
2019-04-27T21:08:23.116Z,98456.84
2019-04-27T21:10:54.698Z,98461.98
2019-04-27T21:13:26.379Z,98453.14
2019-04-27T21:15:58.192Z,98453.14
2019-04-27T21:18:31.812Z,98451.23
2019-04-27T21:21:04.631Z,98451.23
2019-04-27T21:23:36.241Z,98448.41
2019-04-27T21:26:08.213Z,98447.33
2019-04-27T21:28:42.992Z,98445.38
2019-04-27T21:31:13.702Z,98445.38
2019-04-27T21:33:45.592Z,98438.42
2019-04-27T21:36:17.738Z,98438.42
2019-04-27T21:38:51.083Z,98434.05
2019-04-27T21:41:22.821Z,98433.16
2019-04-27T21:43:54.372Z,98432.27
2019-04-27T21:46:26.405Z,98431.69
2019-04-27T21:49:00.032Z,98429.61
2019-04-27T21:51:33.836Z,98432.94
2019-04-27T21:54:20.957Z,98436.52
2019-04-27T21:56:52.880Z,98433.81
2019-04-27T21:59:24.629Z,98433.81
2019-04-27T22:01:58.048Z,98437.69
2019-04-27T22:04:31.384Z,98435.84
2019-04-27T22:07:03.552Z,98437.96
2019-04-27T22:09:35.184Z,98437.96
2019-04-27T22:12:07.714Z,98444.78
2019-04-27T22:14:39.601Z,98448.84
2019-04-27T22:17:11.136Z,98448.84
2019-04-27T22:19:43.013Z,98438.80
2019-04-27T22:22:25.766Z,98449.13
2019-04-27T22:25:07.527Z,98450.27
2019-04-27T22:27:41.168Z,98451.80
2019-04-27T22:30:13.184Z,98451.80
2019-04-27T22:32:45.429Z,98444.98
2019-04-27T22:35:17.733Z,98449.99
2019-04-27T22:37:49.528Z,98456.77
2019-04-27T22:40:43.481Z,98462.88
2019-04-27T22:43:51.281Z,98462.88
2019-04-27T22:46:24.222Z,98466.99
2019-04-27T22:48:55.845Z,98476.48
2019-04-27T22:51:27.530Z,98476.48
2019-04-27T22:53:59.228Z,98473.98
2019-04-27T22:56:32.124Z,98479.47
2019-04-27T22:59:22.321Z,98475.72
2019-04-27T23:02:13.415Z,98480.86
2019-04-27T23:04:51.483Z,98480.86
2019-04-27T23:07:25.039Z,98481.35
2019-04-27T23:09:56.887Z,98490.47
2019-04-27T23:12:28.792Z,98490.47
2019-04-27T23:15:01.093Z,98492.61
2019-04-27T23:17:56.613Z,98493.16
2019-04-27T23:20:28.546Z,98493.16
2019-04-27T23:23:02.791Z,98500.41
2019-04-27T23:25:34.004Z,98519.02
2019-04-27T23:28:05.910Z,98519.02
2019-04-27T23:30:50.667Z,98506.52
2019-04-27T23:33:22.511Z,98506.52
2019-04-27T23:35:54.470Z,98509.52
2019-04-27T23:38:26.213Z,98509.52
2019-04-27T23:40:58.078Z,98509.98
2019-04-27T23:43:29.758Z,98520.86
2019-04-27T23:46:03.120Z,98524.83
2019-04-27T23:48:34.999Z,98521.66
2019-04-27T23:51:25.307Z,98524.98
2019-04-27T23:53:57.246Z,98529.11
2019-04-27T23:56:29.009Z,98532.05
2019-04-27T23:59:01.919Z,98530.95
